TimeMST,TemperatureF,Dew PointF,Humidity,Sea Level PressureIn,VisibilityMPH,Wind Direction,Wind SpeedMPH,Gust SpeedMPH,PrecipitationIn,Events,Conditions,WindDirDegrees,DateUTC
12:54 AM,21.9,18.0,85,30.09,10.0,Calm,Calm,-,N/A,,Clear,0,2013-02-07 07:54:00
1:54 AM,21.9,18.0,85,30.11,10.0,Calm,Calm,-,N/A,,Clear,0,2013-02-07 08:54:00
2:54 AM,19.9,17.1,89,30.11,10.0,Calm,Calm,-,N/A,,Clear,0,2013-02-07 09:54:00
3:54 AM,19.9,16.0,85,30.10,10.0,Calm,Calm,-,N/A,,Clear,0,2013-02-07 10:54:00
4:54 AM,19.9,16.0,85,30.11,10.0,ENE,3.5,-,N/A,,Clear,70,2013-02-07 11:54:00
5:54 AM,19.9,16.0,85,30.13,10.0,NE,4.6,-,N/A,,Clear,50,2013-02-07 12:54:00
6:54 AM,18.0,14.0,84,30.19,10.0,Calm,Calm,-,N/A,,Clear,0,2013-02-07 13:54:00
7:54 AM,19.0,15.1,85,30.23,10.0,Calm,Calm,-,N/A,,Clear,0,2013-02-07 14:54:00
8:54 AM,28.9,24.1,82,30.21,10.0,Calm,Calm,-,N/A,,Clear,0,2013-02-07 15:54:00
9:54 AM,42.1,26.1,53,30.16,10.0,Calm,Calm,-,N/A,,Clear,0,2013-02-07 16:54:00
10:54 AM,44.1,19.0,37,30.16,10.0,Calm,Calm,-,N/A,,Clear,0,2013-02-07 17:54:00
11:54 AM,46.0,19.0,34,30.14,10.0,SSW,8.1,-,N/A,,Clear,200,2013-02-07 18:54:00
12:54 PM,46.4,23.0,40,30.11,10.0,South,10.4,-,N/A,,Clear,190,2013-02-07 19:54:00
1:54 PM,48.0,19.9,33,30.06,10.0,Variable,4.6,19.6,N/A,,Clear,0,2013-02-07 20:54:00
2:54 PM,48.9,21.9,35,30.04,10.0,SSW,12.7,-,N/A,,Clear,210,2013-02-07 21:54:00
3:54 PM,48.9,21.0,33,30.03,10.0,SW,12.7,20.7,N/A,,Clear,230,2013-02-07 22:54:00
4:54 PM,48.0,19.9,33,30.03,10.0,SW,11.5,-,N/A,,Clear,220,2013-02-07 23:54:00
5:54 PM,43.0,18.0,37,30.04,10.0,SSW,6.9,-,N/A,,Clear,210,2013-02-08 00:54:00
6:54 PM,33.1,19.0,56,30.09,10.0,Calm,Calm,-,N/A,,Partly Cloudy,0,2013-02-08 01:54:00
7:54 PM,28.9,19.9,69,30.10,10.0,Calm,Calm,-,N/A,,Clear,0,2013-02-08 02:54:00
8:54 PM,32.0,21.9,66,30.03,10.0,Calm,Calm,-,N/A,,Mostly Cloudy,0,2013-02-08 03:54:00
9:54 PM,35.1,23.0,61,29.94,10.0,South,6.9,-,N/A,,Unknown,170,2013-02-08 04:54:00
10:54 PM,35.1,24.1,64,29.92,10.0,South,5.8,-,N/A,,Partly Cloudy,170,2013-02-08 05:54:00
11:54 PM,-9999,-9999,N/A,29.99,-9999.0,North,-9999.0,-,N/A,,Unknown,0,2013-02-08 06:54:00